createdAt,value
2023-05-09T00:00:29.986Z,68.50
2023-05-09T00:03:16.969Z,68.54
2023-05-09T00:05:49.100Z,68.68
2023-05-09T00:08:21.200Z,68.50
2023-05-09T00:10:53.903Z,68.56
2023-05-09T00:13:26.646Z,68.53
2023-05-09T00:15:59.093Z,68.54
2023-05-09T00:18:31.422Z,68.51
2023-05-09T00:21:04.237Z,68.46
2023-05-09T00:23:36.348Z,68.51
2023-05-09T00:26:08.872Z,68.44
2023-05-09T00:28:41.145Z,68.43
2023-05-09T00:31:13.437Z,68.47
2023-05-09T00:33:45.707Z,68.51
2023-05-09T00:36:17.971Z,68.51
2023-05-09T00:38:50.428Z,68.54
2023-05-09T00:41:22.724Z,68.43
2023-05-09T00:43:54.772Z,68.37
2023-05-09T00:46:27.290Z,68.46
2023-05-09T00:48:59.910Z,68.43
2023-05-09T00:51:32.723Z,68.39
2023-05-09T00:54:07.009Z,68.59
2023-05-09T00:56:39.198Z,68.59
2023-05-09T00:59:11.753Z,68.65
2023-05-09T01:01:44.030Z,68.50
2023-05-09T01:04:17.141Z,68.43
2023-05-09T01:06:57.203Z,68.49
2023-05-09T01:09:39.453Z,68.52
2023-05-09T01:12:22.262Z,68.37
2023-05-09T01:15:01.380Z,68.50
2023-05-09T01:17:45.261Z,68.37
2023-05-09T01:20:25.101Z,68.44
2023-05-09T01:23:02.847Z,68.33
2023-05-09T01:25:46.401Z,68.33
2023-05-09T01:28:32.083Z,68.28
2023-05-09T01:31:08.215Z,68.33
2023-05-09T01:33:44.015Z,68.32
2023-05-09T01:36:21.570Z,68.25
2023-05-09T01:38:55.586Z,68.33
2023-05-09T01:41:31.123Z,68.39
2023-05-09T01:44:07.675Z,68.34
2023-05-09T01:46:41.117Z,68.34
2023-05-09T01:49:15.060Z,68.37
2023-05-09T01:51:49.024Z,68.43
2023-05-09T01:54:22.716Z,68.30
2023-05-09T01:56:56.131Z,68.33
2023-05-09T01:59:29.998Z,68.47
2023-05-09T02:02:03.494Z,68.30
2023-05-09T02:04:36.983Z,68.16
2023-05-09T02:07:10.874Z,68.16
2023-05-09T02:09:43.378Z,68.21
2023-05-09T02:12:15.547Z,68.27
2023-05-09T02:14:48.061Z,68.25
2023-05-09T02:17:21.789Z,68.17
2023-05-09T02:19:54.031Z,68.15
2023-05-09T02:22:27.039Z,68.13
2023-05-09T02:25:00.721Z,68.14
2023-05-09T02:27:34.264Z,68.05
2023-05-09T02:30:10.284Z,68.04
2023-05-09T02:32:44.699Z,68.09
2023-05-09T02:35:18.587Z,67.87
2023-05-09T02:37:52.360Z,68.08
2023-05-09T02:40:26.239Z,68.02
2023-05-09T02:42:58.953Z,67.95
2023-05-09T02:45:32.116Z,67.94
2023-05-09T02:48:06.869Z,67.88
2023-05-09T02:50:42.950Z,67.85
2023-05-09T02:53:15.262Z,67.80
2023-05-09T02:55:47.682Z,67.74
2023-05-09T02:58:19.942Z,67.79
2023-05-09T03:00:52.268Z,67.67
2023-05-09T03:03:25.586Z,67.66
2023-05-09T03:05:57.897Z,67.58
2023-05-09T03:08:30.031Z,67.59
2023-05-09T03:11:02.397Z,67.61
2023-05-09T03:13:34.661Z,67.49
2023-05-09T03:16:07.401Z,67.56
2023-05-09T03:18:40.143Z,67.67
2023-05-09T03:21:12.737Z,67.69
2023-05-09T03:23:45.049Z,67.60
2023-05-09T03:26:17.270Z,67.67
2023-05-09T03:28:49.846Z,67.61
2023-05-09T03:31:22.051Z,67.64
2023-05-09T03:33:54.606Z,67.65
2023-05-09T03:36:27.655Z,67.59
2023-05-09T03:38:59.996Z,67.53
2023-05-09T03:41:32.267Z,67.57
2023-05-09T03:44:04.796Z,67.52
2023-05-09T03:46:37.228Z,67.35
2023-05-09T03:49:09.432Z,67.38
2023-05-09T03:51:42.244Z,67.55
2023-05-09T03:54:14.632Z,67.42
2023-05-09T03:56:46.862Z,67.43
2023-05-09T03:59:19.221Z,67.40
2023-05-09T04:01:51.637Z,67.38
2023-05-09T04:04:24.034Z,67.38
2023-05-09T04:06:56.286Z,67.40
2023-05-09T04:09:28.939Z,67.25
2023-05-09T04:12:01.054Z,67.21
2023-05-09T04:14:33.236Z,67.12
2023-05-09T04:17:05.604Z,67.12
2023-05-09T04:19:38.346Z,67.14
2023-05-09T04:22:10.694Z,67.08
2023-05-09T04:24:42.903Z,67.01
2023-05-09T04:27:15.156Z,67.21
2023-05-09T04:29:47.262Z,67.04
2023-05-09T04:32:20.927Z,67.01
2023-05-09T04:34:53.220Z,66.96
2023-05-09T04:37:25.277Z,66.96
2023-05-09T04:39:57.407Z,66.91
2023-05-09T04:42:29.604Z,66.85
2023-05-09T04:45:02.053Z,66.80
2023-05-09T04:47:34.463Z,66.88
2023-05-09T04:50:08.149Z,66.71
2023-05-09T04:52:40.448Z,66.60
2023-05-09T04:55:13.529Z,66.45
2023-05-09T04:57:46.019Z,66.41
2023-05-09T05:00:19.528Z,66.51
2023-05-09T05:02:51.869Z,66.44
2023-05-09T05:05:25.450Z,66.39
2023-05-09T05:07:58.137Z,66.43
2023-05-09T05:10:30.874Z,66.48
2023-05-09T05:13:03.305Z,66.41
2023-05-09T05:15:36.059Z,66.35
2023-05-09T05:18:08.556Z,66.30
2023-05-09T05:20:43.604Z,66.16
2023-05-09T05:23:15.970Z,66.02
2023-05-09T05:25:48.362Z,66.15
2023-05-09T05:28:20.939Z,66.00
2023-05-09T05:30:53.178Z,65.89
2023-05-09T05:33:25.647Z,65.73
2023-05-09T05:35:57.790Z,65.73
2023-05-09T05:38:29.860Z,65.82
2023-05-09T05:41:02.117Z,65.86
2023-05-09T05:43:34.293Z,65.70
2023-05-09T05:46:06.944Z,65.76
2023-05-09T05:48:39.362Z,65.76
2023-05-09T05:51:11.716Z,65.66
2023-05-09T05:53:46.497Z,65.63
2023-05-09T05:56:18.719Z,65.52
2023-05-09T05:58:51.148Z,65.44
2023-05-09T06:01:23.435Z,65.44
2023-05-09T06:03:56.276Z,65.27
2023-05-09T06:06:29.255Z,65.11
2023-05-09T06:09:01.719Z,64.69
2023-05-09T06:11:33.795Z,64.74
2023-05-09T06:14:06.150Z,64.22
2023-05-09T06:16:38.297Z,64.04
2023-05-09T06:19:10.605Z,64.16
2023-05-09T06:21:42.891Z,64.33
2023-05-09T06:24:27.595Z,64.13
2023-05-09T06:27:07.440Z,64.09
2023-05-09T06:29:39.798Z,63.90
2023-05-09T06:32:11.935Z,63.61
2023-05-09T06:34:44.291Z,63.06
2023-05-09T06:37:16.483Z,63.06
2023-05-09T06:39:51.896Z,63.22
2023-05-09T06:42:24.284Z,62.96
2023-05-09T06:44:56.575Z,63.00
2023-05-09T06:47:28.975Z,62.73
2023-05-09T06:50:01.145Z,61.99
2023-05-09T06:52:33.373Z,62.23
2023-05-09T06:55:06.312Z,62.43
2023-05-09T06:57:39.923Z,62.15
2023-05-09T07:00:14.350Z,62.11
2023-05-09T07:02:46.935Z,62.06
2023-05-09T07:05:22.709Z,61.79
2023-05-09T07:07:55.489Z,61.65
2023-05-09T07:10:27.940Z,60.83
2023-05-09T07:13:00.308Z,60.98
2023-05-09T07:15:41.421Z,61.08
2023-05-09T07:18:15.462Z,60.67
2023-05-09T07:20:47.649Z,60.70
2023-05-09T07:23:19.890Z,60.31
2023-05-09T07:25:56.862Z,60.02
2023-05-09T07:28:29.205Z,60.19
2023-05-09T07:31:01.560Z,60.50
2023-05-09T07:33:34.554Z,60.69
2023-05-09T07:36:07.120Z,60.57
2023-05-09T07:38:39.442Z,60.38
2023-05-09T07:41:11.754Z,60.33
2023-05-09T07:43:44.092Z,60.06
2023-05-09T07:46:16.447Z,59.78
2023-05-09T07:48:48.961Z,59.66
2023-05-09T07:51:21.283Z,59.22
2023-05-09T07:53:55.308Z,58.64
2023-05-09T07:56:27.737Z,58.90
2023-05-09T07:59:02.435Z,59.28
2023-05-09T08:01:34.765Z,59.26
2023-05-09T08:04:09.170Z,59.13
2023-05-09T08:06:41.781Z,58.91
2023-05-09T08:09:14.025Z,58.85
2023-05-09T08:11:46.411Z,58.51
2023-05-09T08:14:18.805Z,58.31
2023-05-09T08:16:51.134Z,58.33
2023-05-09T08:19:29.854Z,58.10
2023-05-09T08:22:08.186Z,58.15
2023-05-09T08:24:40.645Z,57.37
2023-05-09T08:27:14.086Z,57.40
2023-05-09T08:29:46.619Z,57.51
2023-05-09T08:32:20.058Z,57.36
2023-05-09T08:34:55.517Z,57.32
2023-05-09T08:37:29.111Z,57.11
2023-05-09T08:40:01.394Z,56.88
2023-05-09T08:42:37.525Z,56.94
2023-05-09T08:45:14.926Z,57.08
2023-05-09T08:47:47.905Z,56.85
2023-05-09T08:50:21.792Z,56.63
2023-05-09T08:52:57.426Z,56.45
2023-05-09T08:55:35.511Z,56.36
2023-05-09T08:58:08.248Z,56.34
2023-05-09T09:00:42.846Z,56.43
2023-05-09T09:03:15.788Z,56.30
2023-05-09T09:05:50.630Z,56.33
2023-05-09T09:08:26.356Z,56.20
2023-05-09T09:10:58.973Z,56.25
2023-05-09T09:13:33.061Z,56.22
2023-05-09T09:16:06.129Z,56.23
2023-05-09T09:18:40.514Z,55.85
2023-05-09T09:21:17.033Z,55.81
2023-05-09T09:23:50.851Z,55.61
2023-05-09T09:26:23.130Z,56.06
2023-05-09T09:28:57.087Z,55.94
2023-05-09T09:31:33.204Z,55.73
2023-05-09T09:34:06.034Z,55.81
2023-05-09T09:36:38.374Z,55.73
2023-05-09T09:39:10.569Z,55.85
2023-05-09T09:41:45.131Z,55.91
2023-05-09T09:44:19.098Z,55.78
2023-05-09T09:46:53.155Z,55.82
2023-05-09T09:49:27.177Z,55.92
2023-05-09T09:52:00.100Z,55.74
2023-05-09T09:54:33.530Z,55.76
2023-05-09T09:57:05.839Z,55.86
2023-05-09T09:59:38.174Z,55.70
2023-05-09T10:02:12.517Z,55.78
2023-05-09T10:04:45.237Z,55.83
2023-05-09T10:07:17.443Z,55.71
2023-05-09T10:09:49.900Z,55.93
2023-05-09T10:12:23.718Z,55.95
2023-05-09T10:14:56.698Z,55.81
2023-05-09T10:17:31.323Z,55.83
2023-05-09T10:20:07.029Z,55.84
2023-05-09T10:22:41.811Z,55.83
2023-05-09T10:25:20.863Z,56.11
2023-05-09T10:27:57.253Z,56.14
2023-05-09T10:30:34.317Z,56.25
2023-05-09T10:33:11.881Z,56.23
2023-05-09T10:35:48.265Z,56.22
2023-05-09T10:38:21.533Z,56.00
2023-05-09T10:40:54.921Z,55.88
2023-05-09T10:43:34.257Z,55.84
2023-05-09T10:46:08.429Z,55.73
2023-05-09T10:48:42.789Z,55.70
2023-05-09T10:51:16.449Z,55.71
2023-05-09T10:53:50.440Z,55.94
2023-05-09T10:56:33.937Z,55.91
2023-05-09T10:59:06.251Z,56.05
2023-05-09T11:01:39.836Z,56.18
2023-05-09T11:04:17.942Z,56.02
2023-05-09T11:06:52.467Z,55.92
2023-05-09T11:09:30.308Z,55.99
2023-05-09T11:12:09.735Z,55.77
2023-05-09T11:14:48.834Z,55.96
2023-05-09T11:17:32.929Z,56.06
2023-05-09T11:20:07.872Z,55.99
2023-05-09T11:22:44.244Z,55.90
2023-05-09T11:25:17.902Z,55.78
2023-05-09T11:27:52.288Z,55.77
2023-05-09T11:30:24.728Z,55.52
2023-05-09T11:32:59.197Z,55.44
2023-05-09T11:35:31.875Z,55.10
2023-05-09T11:38:08.029Z,55.32
2023-05-09T11:40:40.985Z,55.21
2023-05-09T11:43:13.891Z,54.86
2023-05-09T11:45:48.024Z,55.16
2023-05-09T11:48:24.785Z,55.34
2023-05-09T11:50:57.152Z,55.24
2023-05-09T11:53:29.322Z,55.20
2023-05-09T11:56:06.449Z,55.07
2023-05-09T11:58:41.243Z,55.43
2023-05-09T12:01:13.740Z,55.50
2023-05-09T12:03:47.136Z,55.39
2023-05-09T12:06:21.189Z,55.28
2023-05-09T12:08:54.898Z,55.23
2023-05-09T12:11:32.438Z,55.09
2023-05-09T12:14:05.538Z,54.87
2023-05-09T12:16:46.340Z,54.49
2023-05-09T12:19:21.890Z,54.52
2023-05-09T12:21:59.475Z,54.73
2023-05-09T12:24:32.471Z,54.81
2023-05-09T12:27:08.066Z,54.80
2023-05-09T12:29:42.459Z,54.59
2023-05-09T12:32:15.584Z,54.42
2023-05-09T12:34:48.705Z,54.36
2023-05-09T12:37:21.647Z,54.42
2023-05-09T12:40:05.222Z,54.21
2023-05-09T12:42:38.185Z,54.07
2023-05-09T12:45:13.476Z,54.28
2023-05-09T12:47:46.667Z,54.19
2023-05-09T12:50:19.304Z,53.92
2023-05-09T12:53:02.533Z,53.93
2023-05-09T12:55:42.524Z,53.78
2023-05-09T12:58:17.783Z,53.76
2023-05-09T13:00:50.151Z,53.69
2023-05-09T13:03:27.521Z,53.56
2023-05-09T13:06:01.025Z,53.53
2023-05-09T13:08:33.576Z,53.71
2023-05-09T13:11:15.336Z,53.45
2023-05-09T13:13:48.673Z,53.53
2023-05-09T13:16:21.275Z,53.25
2023-05-09T13:18:53.581Z,53.26
2023-05-09T13:21:25.800Z,53.16
2023-05-09T13:23:58.153Z,52.73
2023-05-09T13:26:30.775Z,52.75
2023-05-09T13:29:03.117Z,52.77
2023-05-09T13:31:35.663Z,52.93
2023-05-09T13:34:07.841Z,52.83
2023-05-09T13:36:40.138Z,52.70
2023-05-09T13:39:12.592Z,52.74
2023-05-09T13:41:44.989Z,52.85
2023-05-09T13:44:17.488Z,52.88
2023-05-09T13:46:49.891Z,52.81
2023-05-09T13:49:22.357Z,52.53
2023-05-09T13:51:54.585Z,52.07
2023-05-09T13:54:29.641Z,52.22
2023-05-09T13:57:01.898Z,52.29
2023-05-09T13:59:35.036Z,52.29
2023-05-09T14:02:07.363Z,52.36
2023-05-09T14:04:40.808Z,52.01
2023-05-09T14:07:14.974Z,52.07
2023-05-09T14:09:49.093Z,51.75
2023-05-09T14:12:24.340Z,51.85
2023-05-09T14:14:56.758Z,51.95
2023-05-09T14:17:29.177Z,52.12
2023-05-09T14:20:01.526Z,52.27
2023-05-09T14:22:34.031Z,52.42
2023-05-09T14:25:07.375Z,52.42
2023-05-09T14:27:41.560Z,52.32
2023-05-09T14:30:15.924Z,52.16
2023-05-09T14:32:48.302Z,52.20
2023-05-09T14:35:21.036Z,52.22
2023-05-09T14:37:53.347Z,52.25
2023-05-09T14:40:26.466Z,52.39
2023-05-09T14:42:59.189Z,52.27
2023-05-09T14:45:32.850Z,52.21
2023-05-09T14:48:05.627Z,52.23
2023-05-09T14:50:38.009Z,52.38
2023-05-09T14:53:11.278Z,52.52
2023-05-09T14:55:43.578Z,52.52
2023-05-09T14:58:16.237Z,52.67
2023-05-09T15:00:48.754Z,52.69
2023-05-09T15:03:21.210Z,52.54
2023-05-09T15:05:53.784Z,52.93
2023-05-09T15:08:26.165Z,53.07
2023-05-09T15:10:58.875Z,53.22
2023-05-09T15:13:31.408Z,53.25
2023-05-09T15:16:03.809Z,53.59
2023-05-09T15:18:36.363Z,53.42
2023-05-09T15:21:08.897Z,53.57
2023-05-09T15:23:41.362Z,53.76
2023-05-09T15:26:13.596Z,53.70
2023-05-09T15:28:45.985Z,53.86
2023-05-09T15:31:21.808Z,53.95
2023-05-09T15:33:54.193Z,53.98
2023-05-09T15:36:26.511Z,54.02
2023-05-09T15:38:59.100Z,54.13
2023-05-09T15:41:31.794Z,54.28
2023-05-09T15:44:04.438Z,54.18
2023-05-09T15:46:37.941Z,54.29
2023-05-09T15:49:13.610Z,54.41
2023-05-09T15:51:46.024Z,54.42
2023-05-09T15:54:18.543Z,54.34
2023-05-09T15:56:50.843Z,54.38
2023-05-09T15:59:23.247Z,54.54
2023-05-09T16:01:55.804Z,54.50
2023-05-09T16:04:28.203Z,54.42
2023-05-09T16:07:03.249Z,54.56
2023-05-09T16:09:37.400Z,54.52
2023-05-09T16:12:10.241Z,54.45
2023-05-09T16:14:42.594Z,54.74
2023-05-09T16:17:14.846Z,54.69
2023-05-09T16:19:47.359Z,54.88
2023-05-09T16:22:19.672Z,54.75
2023-05-09T16:24:51.770Z,54.94
2023-05-09T16:27:24.221Z,55.08
2023-05-09T16:29:56.366Z,55.14
2023-05-09T16:32:28.657Z,55.48
2023-05-09T16:35:01.042Z,55.44
2023-05-09T16:37:35.402Z,55.67
2023-05-09T16:40:10.013Z,55.77
2023-05-09T16:42:42.990Z,55.92
2023-05-09T16:45:15.974Z,56.03
2023-05-09T16:47:48.839Z,56.01
2023-05-09T16:50:22.858Z,56.02
2023-05-09T16:52:55.591Z,56.07
2023-05-09T16:55:28.825Z,56.11
2023-05-09T16:58:01.311Z,56.18
2023-05-09T17:00:33.862Z,56.10
2023-05-09T17:03:07.269Z,56.22
2023-05-09T17:05:39.937Z,56.49
2023-05-09T17:08:12.142Z,56.42
2023-05-09T17:10:44.457Z,56.37
2023-05-09T17:13:16.619Z,56.57
2023-05-09T17:15:49.453Z,56.56
2023-05-09T17:18:33.306Z,56.73
2023-05-09T17:21:08.848Z,56.68
2023-05-09T17:23:41.337Z,56.83
2023-05-09T17:26:13.714Z,56.87
2023-05-09T17:28:46.074Z,56.80
2023-05-09T17:31:18.479Z,56.87
2023-05-09T17:33:50.848Z,56.85
2023-05-09T17:36:23.358Z,57.05
2023-05-09T17:38:56.256Z,57.04
2023-05-09T17:41:28.518Z,57.01
2023-05-09T17:44:00.814Z,57.02
2023-05-09T17:46:33.152Z,57.19
2023-05-09T17:49:07.765Z,57.22
2023-05-09T17:51:40.314Z,57.29
2023-05-09T17:54:13.132Z,57.43
2023-05-09T17:56:45.585Z,57.36
2023-05-09T17:59:17.876Z,57.45
2023-05-09T18:01:50.355Z,57.50
2023-05-09T18:04:22.977Z,57.72
2023-05-09T18:06:55.214Z,57.70
2023-05-09T18:09:28.165Z,57.81
2023-05-09T18:12:00.529Z,57.93
2023-05-09T18:14:33.019Z,57.96
2023-05-09T18:17:05.430Z,57.97
2023-05-09T18:19:39.959Z,58.03
2023-05-09T18:22:15.881Z,58.20
2023-05-09T18:24:46.621Z,58.10
2023-05-09T18:27:19.022Z,58.20
2023-05-09T18:29:51.465Z,58.30
2023-05-09T18:32:24.154Z,58.32
2023-05-09T18:34:56.913Z,58.25
2023-05-09T18:37:29.747Z,58.52
2023-05-09T18:40:02.533Z,58.56
2023-05-09T18:42:36.394Z,58.52
2023-05-09T18:45:10.656Z,58.78
2023-05-09T18:47:43.053Z,58.74
2023-05-09T18:50:16.095Z,58.99
2023-05-09T18:52:48.756Z,59.01
2023-05-09T18:55:22.195Z,59.02
2023-05-09T18:57:54.733Z,59.09
2023-05-09T19:00:27.225Z,59.03
2023-05-09T19:02:59.732Z,59.19
2023-05-09T19:05:31.977Z,59.12
2023-05-09T19:08:04.401Z,59.25
2023-05-09T19:10:38.028Z,59.17
2023-05-09T19:13:10.470Z,59.28
2023-05-09T19:15:42.774Z,59.25
2023-05-09T19:18:15.213Z,59.26
2023-05-09T19:20:48.057Z,59.34
2023-05-09T19:23:20.497Z,59.38
2023-05-09T19:25:53.916Z,59.33
2023-05-09T19:28:26.921Z,59.41
2023-05-09T19:30:59.382Z,59.46
2023-05-09T19:33:31.859Z,59.52
2023-05-09T19:36:04.410Z,59.49
2023-05-09T19:38:36.740Z,59.41
2023-05-09T19:41:09.309Z,59.42
2023-05-09T19:43:41.669Z,59.56
2023-05-09T19:46:13.937Z,59.62
2023-05-09T19:48:46.799Z,59.53
2023-05-09T19:51:19.159Z,59.73
2023-05-09T19:53:51.590Z,59.67
2023-05-09T19:56:24.086Z,59.74
2023-05-09T19:58:56.397Z,59.71
2023-05-09T20:01:29.636Z,59.87
2023-05-09T20:04:01.910Z,59.78
2023-05-09T20:06:35.539Z,59.92
2023-05-09T20:09:07.695Z,59.81
2023-05-09T20:11:40.050Z,59.82
2023-05-09T20:14:12.885Z,59.84
2023-05-09T20:16:45.727Z,59.71
2023-05-09T20:19:23.212Z,59.85
2023-05-09T20:21:55.557Z,59.82
2023-05-09T20:24:27.826Z,59.73
2023-05-09T20:27:00.211Z,59.85
2023-05-09T20:29:32.809Z,59.65
2023-05-09T20:32:05.047Z,59.70
2023-05-09T20:34:37.279Z,59.68
2023-05-09T20:37:09.450Z,59.58
2023-05-09T20:39:41.721Z,59.59
2023-05-09T20:42:14.137Z,59.54
2023-05-09T20:44:47.730Z,59.66
2023-05-09T20:47:19.999Z,59.71
2023-05-09T20:49:52.139Z,59.77
2023-05-09T20:52:24.374Z,59.77
2023-05-09T20:54:56.632Z,59.72
2023-05-09T20:57:28.911Z,59.61
2023-05-09T21:00:01.144Z,59.80
2023-05-09T21:02:33.411Z,59.69
2023-05-09T21:05:06.247Z,59.68
2023-05-09T21:07:38.575Z,59.65
2023-05-09T21:10:12.371Z,59.74
2023-05-09T21:12:44.715Z,59.80
2023-05-09T21:15:17.220Z,59.68
2023-05-09T21:17:49.481Z,59.70
2023-05-09T21:20:21.969Z,59.73
2023-05-09T21:22:54.235Z,59.81
2023-05-09T21:25:26.693Z,59.84
2023-05-09T21:27:58.860Z,59.84
2023-05-09T21:30:31.109Z,59.89
2023-05-09T21:33:04.044Z,59.99
2023-05-09T21:35:36.400Z,60.07
2023-05-09T21:38:09.159Z,60.07
2023-05-09T21:40:42.038Z,60.13
2023-05-09T21:43:14.367Z,60.14
2023-05-09T21:45:46.978Z,60.15
2023-05-09T21:48:19.299Z,60.25
2023-05-09T21:50:51.483Z,60.20
2023-05-09T21:53:23.856Z,60.30
2023-05-09T21:55:56.681Z,60.44
2023-05-09T21:58:28.943Z,60.43
2023-05-09T22:01:01.406Z,60.58
2023-05-09T22:03:34.097Z,60.56
2023-05-09T22:06:07.767Z,60.58
2023-05-09T22:08:39.953Z,60.73
2023-05-09T22:11:14.126Z,60.78
2023-05-09T22:13:47.201Z,60.85
2023-05-09T22:16:19.646Z,60.92
2023-05-09T22:18:51.964Z,61.07
2023-05-09T22:21:24.358Z,61.11
2023-05-09T22:23:56.815Z,61.21
2023-05-09T22:26:28.988Z,61.26
2023-05-09T22:29:01.218Z,61.34
2023-05-09T22:31:33.604Z,61.34
2023-05-09T22:34:05.798Z,61.48
2023-05-09T22:36:38.183Z,61.54
2023-05-09T22:39:11.181Z,61.50
2023-05-09T22:41:43.571Z,61.57
2023-05-09T22:44:15.889Z,61.56
2023-05-09T22:46:48.243Z,61.62
2023-05-09T22:49:20.460Z,61.75
2023-05-09T22:51:52.604Z,61.63
2023-05-09T22:54:25.653Z,61.76
2023-05-09T22:56:57.989Z,61.79
2023-05-09T22:59:30.236Z,61.82
2023-05-09T23:02:02.729Z,61.94
2023-05-09T23:04:34.948Z,62.07
2023-05-09T23:07:07.506Z,62.16
2023-05-09T23:09:41.033Z,62.10
2023-05-09T23:12:13.203Z,62.20
2023-05-09T23:14:45.308Z,62.17
2023-05-09T23:17:17.614Z,62.32
2023-05-09T23:19:50.139Z,62.30
2023-05-09T23:22:22.419Z,62.28
2023-05-09T23:24:54.740Z,62.34
2023-05-09T23:27:27.150Z,62.37
2023-05-09T23:29:59.670Z,62.40
2023-05-09T23:32:32.179Z,62.45
2023-05-09T23:35:04.891Z,62.45
2023-05-09T23:37:37.290Z,62.49
2023-05-09T23:40:11.431Z,62.63
2023-05-09T23:42:43.686Z,62.49
2023-05-09T23:45:16.472Z,62.51
2023-05-09T23:47:48.818Z,62.50
2023-05-09T23:50:21.589Z,62.62
2023-05-09T23:52:53.831Z,62.60
2023-05-09T23:55:26.118Z,62.57
2023-05-09T23:57:58.270Z,62.54
